Sheng Jia 1 — XUGG7 — position and weather

sailwx.info

Track history (hours):
 
Tides and Currents Weather Stations Pressure Air Temp Water Temp Dewpoint Dewpoint Depression Visibility Wind Speed Wind Dir Waves Ship Positions

Sheng Jia 1

Last reported at 2015-Mar-03 02:12 UTC. Time now 2015-Mar-03 08:56 UTC.
Position N 31°45' E 121°02'.

Length 73 m; draft 6 m.

Type: Cargo ship. MMSI: 515744000.

Date/timePositionNaut miles runAvg speedWind from/ knotsBaromVisibWave heightAir tempDewpointWater temp
2015-Mar-03 02:12N 31°45' E 121°02'0 0.0
2015-Mar-02 23:15N 31°45' E 121°02'0 0.0
2015-Mar-02 22:33N 31°45' E 121°02'0 0.0
2015-Mar-02 21:24N 31°45' E 121°02'0 0.0
2015-Mar-02 15:07N 31°45' E 121°02'0 0.0
2015-Mar-02 04:20N 31°45' E 121°02'7 6.6
2015-Mar-02 03:19N 31°42' E 121°09'911.2
2015-Mar-02 02:34N 31°36' E 121°17'1111.0
2015-Mar-02 01:34N 31°29' E 121°27'1010.3
2015-Mar-02 00:33N 31°23' E 121°36'1110.5
2015-Mar-01 23:33N 31°16' E 121°46'1010.3
2015-Mar-01 22:33N 31°09' E 121°54'1010.0
2015-Mar-01 21:33N 31°04' E 122°05'9 8.5
2015-Mar-01 20:32N 31°03' E 122°15'7 6.6
2015-Mar-01 19:32N 31°00' E 122°22'0 0.2
2015-Mar-01 18:24N 30°60' E 122°22'0 0.0
2015-Mar-01 17:26N 30°60' E 122°22'0 0.0
2015-Mar-01 14:11N 30°60' E 122°22'0 0.0
2015-Mar-01 08:24N 30°60' E 122°22'0 0.1
2015-Mar-01 07:27N 30°60' E 122°22'0 0.0
2015-Mar-01 04:16N 30°60' E 122°22'0 0.0
2015-Mar-01 03:10N 30°60' E 122°22'0 0.0
2015-Mar-01 01:17N 30°60' E 122°22'0 0.0
2015-Mar-01 00:24N 30°60' E 122°22'0 0.1
2015-Feb-28 19:30N 30°60' E 122°21'0 0.4
2015-Feb-28 18:33N 30°59' E 122°21'  
Track history (hours):
 
Tides and Currents Weather Stations Pressure Air Temp Water Temp Dewpoint Dewpoint Depression Visibility Wind Speed Wind Dir Waves Ship Positions

Sheng Jia 1

Last reported at 2015-Mar-03 02:12 UTC. Time now 2015-Mar-03 08:56 UTC.
Position N 31°45' E 121°02'.

Length 73 m; draft 6 m.

Type: Cargo ship. MMSI: 515744000.

Date/timePositionNaut miles runAvg speedWind from/ knotsBaromVisibWave heightAir tempDewpointWater temp
2015-Mar-03 02:12N 31°45' E 121°02'0 0.0
2015-Mar-02 23:15N 31°45' E 121°02'0 0.0
2015-Mar-02 22:33N 31°45' E 121°02'0 0.0
2015-Mar-02 21:24N 31°45' E 121°02'0 0.0
2015-Mar-02 15:07N 31°45' E 121°02'0 0.0
2015-Mar-02 04:20N 31°45' E 121°02'7 6.6
2015-Mar-02 03:19N 31°42' E 121°09'911.2
2015-Mar-02 02:34N 31°36' E 121°17'1111.0
2015-Mar-02 01:34N 31°29' E 121°27'1010.3
2015-Mar-02 00:33N 31°23' E 121°36'1110.5
2015-Mar-01 23:33N 31°16' E 121°46'1010.3
2015-Mar-01 22:33N 31°09' E 121°54'1010.0
2015-Mar-01 21:33N 31°04' E 122°05'9 8.5
2015-Mar-01 20:32N 31°03' E 122°15'7 6.6
2015-Mar-01 19:32N 31°00' E 122°22'0 0.2
2015-Mar-01 18:24N 30°60' E 122°22'0 0.0
2015-Mar-01 17:26N 30°60' E 122°22'0 0.0
2015-Mar-01 14:11N 30°60' E 122°22'0 0.0
2015-Mar-01 08:24N 30°60' E 122°22'0 0.1
2015-Mar-01 07:27N 30°60' E 122°22'0 0.0
2015-Mar-01 04:16N 30°60' E 122°22'0 0.0
2015-Mar-01 03:10N 30°60' E 122°22'0 0.0
2015-Mar-01 01:17N 30°60' E 122°22'0 0.0
2015-Mar-01 00:24N 30°60' E 122°22'0 0.1
2015-Feb-28 19:30N 30°60' E 122°21'0 0.4
2015-Feb-28 18:33N 30°59' E 122°21'  

Dump ship's entire track history